Time;durP1;ratioP1;P1;durP2;ratioP2;P2;SDS_P1;SDS_P2;PMS_P1;PMS_P2;Temp;Humidity;BMP_temperature;BMP_pressure;BME280_temperature;BME280_humidity;BME280_pressure;Samples;Min_cycle;Max_cycle;Signal;HPM_P1;HPM_P2
2022/11/25 00:00:02;;;;;;;2.08;1.48;;;;;;;6.60;60.62;95949.09;5134638;27;20039;-62
2022/11/25 00:02:29;;;;;;;1.73;1.63;;;;;;;6.55;59.91;95944.03;5134566;27;20093;-63
2022/11/25 00:04:56;;;;;;;1.50;1.40;;;;;;;6.60;59.38;95955.13;5134617;27;20085;-63
2022/11/25 00:07:23;;;;;;;1.55;1.45;;;;;;;6.62;58.74;95955.94;5134569;27;20126;-63
2022/11/25 00:09:51;;;;;;;1.40;1.30;;;;;;;6.61;59.00;95950.78;5134377;27;20450;-61
2022/11/25 00:12:21;;;;;;;2.35;1.45;;;;;;;6.58;59.46;95949.13;5134304;27;20055;-60
2022/11/25 00:14:49;;;;;;;2.50;1.73;;;;;;;6.59;59.93;95947.41;5134451;27;20047;-61
2022/11/25 00:17:16;;;;;;;1.73;1.48;;;;;;;6.60;59.24;95951.69;5134220;27;20183;-61
2022/11/25 00:19:44;;;;;;;2.88;1.52;;;;;;;6.54;60.61;95947.53;5133990;27;20075;-60
2022/11/25 00:22:11;;;;;;;1.90;1.30;;;;;;;6.56;59.70;95950.91;5134027;27;20039;-61
2022/11/25 00:24:38;;;;;;;1.83;1.40;;;;;;;6.55;59.00;95954.41;5134257;27;20047;-60
2022/11/25 00:27:05;;;;;;;1.40;1.30;;;;;;;6.51;59.03;95953.69;5134210;27;20047;-62
2022/11/25 00:29:32;;;;;;;1.55;1.42;;;;;;;6.53;59.54;95953.63;5134120;27;20047;-61
2022/11/25 00:32:01;;;;;;;1.35;1.25;;;;;;;6.52;59.02;95959.72;5134216;27;20118;-62
2022/11/25 00:34:28;;;;;;;2.63;1.38;;;;;;;6.54;59.15;95961.34;5134107;27;20051;-62
2022/11/25 00:36:56;;;;;;;1.40;1.30;;;;;;;6.56;59.30;95967.38;5134169;27;20054;-62
2022/11/25 00:39:24;;;;;;;2.03;1.55;;;;;;;6.50;60.23;95962.34;5134028;27;20104;-63
2022/11/25 00:44:36;;;;;;;1.50;1.23;;;;;;;6.47;59.29;95959.84;5134004;28;20412;-62
2022/11/25 00:47:08;;;;;;;1.40;1.30;;;;;;;6.40;59.06;95958.34;5133999;27;20054;-60
2022/11/25 00:49:36;;;;;;;1.38;1.27;;;;;;;6.41;59.19;95963.50;5133894;27;20467;-60
2022/11/25 00:52:04;;;;;;;1.60;1.50;;;;;;;6.45;59.25;95964.25;5133988;27;20519;-63
2022/11/25 00:54:31;;;;;;;2.33;1.60;;;;;;;6.49;59.22;95965.88;5133894;27;20082;-62
2022/11/25 00:56:59;;;;;;;1.90;1.35;;;;;;;6.52;59.44;95965.78;5134041;27;20086;-63
2022/11/25 00:59:26;;;;;;;1.30;1.20;;;;;;;6.53;58.86;95966.63;5133878;27;20039;-61
2022/11/25 01:01:53;;;;;;;1.63;1.27;;;;;;;6.52;58.94;95964.91;5133968;27;20103;-62
2022/11/25 01:04:22;;;;;;;1.67;1.38;;;;;;;6.54;59.40;95970.91;5133808;27;20047;-63
2022/11/25 01:06:49;;;;;;;1.52;1.38;;;;;;;6.58;59.01;95969.91;5133761;27;20477;-63
2022/11/25 01:09:16;;;;;;;1.90;1.80;;;;;;;6.60;58.30;95962.06;5133855;27;20100;-63
2022/11/25 01:11:43;;;;;;;1.35;1.25;;;;;;;6.60;58.54;95962.94;5133765;27;20092;-63
2022/11/25 01:14:10;;;;;;;1.33;1.17;;;;;;;6.61;58.26;95966.38;5133782;27;20492;-63
2022/11/25 01:16:37;;;;;;;1.75;1.40;;;;;;;6.69;57.69;95960.03;5133460;27;20043;-63
2022/11/25 01:19:05;;;;;;;4.65;1.50;;;;;;;6.68;58.35;95960.06;5133795;27;20047;-63
2022/11/25 01:21:34;;;;;;;1.45;1.23;;;;;;;6.69;58.46;95967.81;5133752;27;20477;-62
2022/11/25 01:24:04;;;;;;;1.55;1.45;;;;;;;6.69;58.45;95956.59;5133679;27;20079;-62
2022/11/25 01:26:33;;;;;;;3.05;1.20;;;;;;;6.74;57.87;95967.69;5133717;27;20051;-62
2022/11/25 01:29:02;;;;;;;1.20;1.10;;;;;;;6.75;58.49;95964.19;5133838;27;20043;-62
2022/11/25 01:31:32;;;;;;;1.65;1.50;;;;;;;6.75;58.85;95960.75;5134560;27;20116;-62
2022/11/25 01:34:01;;;;;;;2.53;1.50;;;;;;;6.74;59.09;95965.09;5137299;27;20047;-62
2022/11/25 01:36:29;;;;;;;1.92;1.52;;;;;;;6.76;59.16;95962.44;5137389;27;20122;-62
2022/11/25 01:38:59;;;;;;;4.88;1.58;;;;;;;6.81;58.53;95965.75;5137421;27;20047;-62
2022/11/25 01:41:29;;;;;;;1.05;1.05;;;;;;;6.78;58.79;95955.44;5136957;27;20492;-62
2022/11/25 01:44:13;;;;;;;1.70;1.30;;;;;;;6.83;58.46;95961.34;5137234;27;20055;-62
2022/11/25 01:47:01;;;;;;;1.40;1.30;;;;;;;6.82;58.59;95972.66;5137310;27;20130;-62
2022/11/25 01:49:33;;;;;;;1.65;1.42;;;;;;;6.79;57.64;95962.34;5137196;27;20075;-62
2022/11/25 01:52:06;;;;;;;1.90;1.30;;;;;;;6.67;57.73;95958.38;5137127;27;20065;-62
2022/11/25 01:54:38;;;;;;;1.67;1.35;;;;;;;6.60;57.61;95967.28;5137136;27;20101;-62
2022/11/25 01:57:08;;;;;;;1.10;1.02;;;;;;;6.58;57.69;95964.72;5137060;27;20050;-62
2022/11/25 01:59:42;;;;;;;6.07;1.58;;;;;;;6.54;57.66;95978.72;5137084;27;20046;-61
2022/11/25 02:02:09;;;;;;;1.40;1.30;;;;;;;6.51;58.48;95973.63;5136818;27;20065;-62
2022/11/25 02:04:40;;;;;;;1.35;1.25;;;;;;;6.51;58.97;95981.41;5136878;27;20498;-61
2022/11/25 02:07:12;;;;;;;1.85;1.20;;;;;;;6.48;57.46;95990.16;5136965;27;20453;-62
2022/11/25 02:09:43;;;;;;;1.60;1.50;;;;;;;6.46;58.98;95989.34;5136684;27;20134;-62
2022/11/25 02:12:11;;;;;;;2.08;1.20;;;;;;;6.41;57.93;95986.88;5136681;27;20051;-62
2022/11/25 02:14:39;;;;;;;1.77;1.58;;;;;;;6.52;58.12;95990.91;5136645;27;20043;-62
2022/11/25 02:17:06;;;;;;;1.33;1.20;;;;;;;6.59;58.27;95982.00;5136624;27;20066;-61
2022/11/25 02:19:55;;;;;;;1.33;1.23;;;;;;;6.49;58.58;95988.38;5136690;27;20046;-62
2022/11/25 02:22:29;;;;;;;1.95;1.23;;;;;;;6.46;58.12;95986.75;5136374;27;20043;-62
2022/11/25 02:25:02;;;;;;;2.35;1.70;;;;;;;6.47;58.04;95980.63;5136497;27;20039;-61
2022/11/25 02:27:30;;;;;;;5.00;1.50;;;;;;;6.44;58.13;95975.53;5136360;27;20085;-61
2022/11/25 02:29:58;;;;;;;1.52;1.42;;;;;;;6.47;57.94;95980.63;5136443;27;20043;-62
2022/11/25 02:32:25;;;;;;;2.35;1.52;;;;;;;6.48;57.79;95979.75;5136319;27;20096;-62
2022/11/25 02:34:52;;;;;;;1.50;1.40;;;;;;;6.45;57.42;95982.44;5136262;27;20058;-62
2022/11/25 02:37:22;;;;;;;3.03;1.23;;;;;;;6.50;57.58;95977.94;5136231;27;20552;-62
2022/11/25 02:39:51;;;;;;;1.08;1.00;;;;;;;6.50;58.15;95975.34;5136204;27;20126;-62
2022/11/25 02:42:21;;;;;;;1.40;1.20;;;;;;;6.43;57.91;95977.31;5136195;27;20111;-62
2022/11/25 02:44:50;;;;;;;1.42;1.20;;;;;;;6.48;58.35;95977.16;5135646;27;20416;-62
2022/11/25 02:47:17;;;;;;;1.33;1.20;;;;;;;6.44;58.05;95978.13;5136109;27;20086;-62
2022/11/25 02:49:44;;;;;;;2.72;1.50;;;;;;;6.48;57.00;95984.09;5136030;27;20074;-61
2022/11/25 02:52:12;;;;;;;1.30;1.20;;;;;;;6.51;56.82;95979.66;5136089;27;20130;-61
2022/11/25 02:54:40;;;;;;;1.90;1.42;;;;;;;6.52;57.69;95976.16;5135854;27;20462;-62
2022/11/25 02:57:07;;;;;;;1.42;1.27;;;;;;;6.52;56.85;95983.09;5135751;27;20400;-62
2022/11/25 02:59:33;;;;;;;3.25;1.60;;;;;;;6.50;57.50;95982.31;5135811;27;20051;-62
2022/11/25 03:02:03;;;;;;;1.52;1.42;;;;;;;6.49;57.43;95986.66;5135824;27;20156;-62
2022/11/25 03:04:31;;;;;;;1.77;1.52;;;;;;;6.59;57.19;95995.00;5135626;27;20484;-62
2022/11/25 03:06:58;;;;;;;1.55;1.15;;;;;;;6.57;57.52;96002.00;5135696;27;20047;-62
2022/11/25 03:09:25;;;;;;;2.17;1.58;;;;;;;6.53;57.44;96009.03;5135596;27;20092;-62
2022/11/25 03:14:39;;;;;;;3.08;1.35;;;;;;;6.56;58.01;96014.16;5135453;27;20424;-62
2022/11/25 03:17:07;;;;;;;1.90;1.30;;;;;;;6.57;57.36;96012.41;5135148;27;20115;-62
2022/11/25 03:19:34;;;;;;;3.67;1.38;;;;;;;6.53;57.23;96014.25;5135305;27;20047;-61
2022/11/25 03:22:02;;;;;;;1.60;1.30;;;;;;;6.52;57.34;96016.88;5135365;27;20450;-62
2022/11/25 03:24:29;;;;;;;1.33;1.23;;;;;;;6.52;56.77;96019.47;5135425;27;20127;-62
2022/11/25 03:27:01;;;;;;;1.50;1.20;;;;;;;6.48;56.35;96021.34;5135300;27;20467;-62
2022/11/25 03:29:29;;;;;;;1.20;1.00;;;;;;;6.52;58.24;96019.47;5135149;27;20139;-62
2022/11/25 03:31:56;;;;;;;1.75;1.23;;;;;;;6.54;57.27;96017.69;5135076;27;20047;-62
2022/11/25 03:34:25;;;;;;;1.95;1.35;;;;;;;6.55;56.55;96025.44;5134972;27;20043;-62
2022/11/25 03:36:52;;;;;;;1.10;0.98;;;;;;;6.57;56.53;96026.22;5135059;27;20047;-62
2022/11/25 03:39:19;;;;;;;1.42;1.33;;;;;;;6.65;56.24;96025.19;5134947;27;20043;-62
2022/11/25 03:41:46;;;;;;;5.18;1.38;;;;;;;6.67;57.50;96036.34;5135011;27;20047;-62
2022/11/25 03:44:13;;;;;;;1.38;1.25;;;;;;;6.63;59.06;96027.81;5134954;27;20074;-62
2022/11/25 03:46:40;;;;;;;1.67;1.33;;;;;;;6.59;57.22;96023.59;5134816;27;20484;-62
2022/11/25 03:49:07;;;;;;;1.40;1.30;;;;;;;6.64;56.16;96023.44;5134808;27;20039;-62
2022/11/25 03:51:36;;;;;;;1.13;1.02;;;;;;;6.59;55.82;96022.75;5134739;27;20054;-62
2022/11/25 03:54:03;;;;;;;3.17;1.27;;;;;;;6.48;55.53;96018.75;5134665;27;20043;-62
2022/11/25 03:56:30;;;;;;;1.88;1.33;;;;;;;6.59;55.49;96013.19;5133763;27;20047;-62
2022/11/25 03:58:57;;;;;;;2.75;1.17;;;;;;;6.59;56.47;96012.38;5134569;27;20047;-61
2022/11/25 04:01:25;;;;;;;2.30;0.93;;;;;;;6.43;55.78;96020.59;5134627;27;20601;-62
2022/11/25 04:03:52;;;;;;;1.98;1.00;;;;;;;6.44;56.29;96028.34;5134529;27;20049;-62
2022/11/25 04:06:20;;;;;;;1.85;1.15;;;;;;;6.41;55.28;96027.63;5134535;27;20408;-61
2022/11/25 04:08:49;;;;;;;2.35;1.00;;;;;;;6.43;56.19;96005.88;5134576;27;20101;-62
2022/11/25 04:11:16;;;;;;;1.30;1.20;;;;;;;6.52;56.35;96022.94;5134569;27;20043;-62
2022/11/25 04:13:43;;;;;;;1.45;1.17;;;;;;;6.53;56.40;96029.84;5134349;27;20112;-62
2022/11/25 04:16:20;;;;;;;1.27;1.08;;;;;;;6.52;55.33;96022.06;5133948;27;20047;-62
2022/11/25 04:18:47;;;;;;;2.03;1.13;;;;;;;6.49;55.73;96030.81;5134369;27;20047;-62
2022/11/25 04:21:14;;;;;;;1.15;0.95;;;;;;;6.46;56.01;96028.31;5134351;27;20446;-62
2022/11/25 04:23:41;;;;;;;1.05;1.02;;;;;;;6.51;56.42;96033.38;5134308;27;20051;-62
2022/11/25 04:26:10;;;;;;;1.40;1.20;;;;;;;6.55;55.74;96027.19;5134190;27;20107;-62
2022/11/25 04:28:40;;;;;;;1.58;1.30;;;;;;;6.57;56.38;96025.41;5134228;27;20092;-62
2022/11/25 04:31:07;;;;;;;1.30;1.20;;;;;;;6.52;55.63;96035.94;5134319;27;20043;-62
2022/11/25 04:33:35;;;;;;;1.90;1.20;;;;;;;6.49;55.18;96036.03;5134125;27;20050;-62
2022/11/25 04:36:02;;;;;;;1.30;1.20;;;;;;;6.51;54.75;96028.19;5134116;27;20043;-62
2022/11/25 04:38:29;;;;;;;1.33;1.10;;;;;;;6.50;55.51;96034.28;5134393;27;20070;-62
2022/11/25 04:40:56;;;;;;;2.58;1.60;;;;;;;6.44;55.32;96033.56;5134053;27;20400;-62
2022/11/25 04:43:25;;;;;;;0.98;0.85;;;;;;;6.43;54.72;96038.78;5134545;27;20079;-62
2022/11/25 04:45:53;;;;;;;2.58;1.85;;;;;;;6.47;54.41;96040.41;5134082;27;20050;-62
2022/11/25 04:48:20;;;;;;;1.80;1.20;;;;;;;6.50;54.63;96040.31;5134046;27;20503;-62
2022/11/25 04:50:47;;;;;;;1.33;1.00;;;;;;;6.49;54.85;96041.22;5133969;27;20054;-62
2022/11/25 04:53:15;;;;;;;1.15;1.05;;;;;;;6.50;54.08;96037.72;5133971;27;20192;-62
2022/11/25 04:55:42;;;;;;;1.35;1.25;;;;;;;6.48;54.23;96036.94;5133849;27;20090;-62
2022/11/25 04:58:10;;;;;;;1.52;1.10;;;;;;;6.52;53.94;96041.13;5133919;27;20096;-62
2022/11/25 05:00:38;;;;;;;1.60;1.10;;;;;;;6.53;54.39;96037.63;5133888;27;20504;-62
2022/11/25 05:03:07;;;;;;;1.70;1.50;;;;;;;6.56;55.23;96037.53;5133869;27;20130;-62
2022/11/25 05:05:34;;;;;;;1.98;1.55;;;;;;;6.52;53.44;96046.31;5133758;27;20043;-62
2022/11/25 05:08:01;;;;;;;3.55;2.00;;;;;;;6.57;54.07;96056.59;5137303;27;20047;-62
2022/11/25 05:10:29;;;;;;;5.53;3.22;;;;;;;6.58;53.86;96066.06;5137848;27;20142;-62
2022/11/25 05:12:56;;;;;;;12.93;5.82;;;;;;;6.63;54.30;96072.00;5137859;27;20062;-62
2022/11/25 05:15:27;;;;;;;2.42;1.75;;;;;;;6.65;54.60;96064.16;5137881;27;20051;-62
2022/11/25 05:17:56;;;;;;;3.47;1.35;;;;;;;6.67;54.31;96072.75;5137658;27;20043;-63
2022/11/25 05:20:24;;;;;;;1.70;1.30;;;;;;;6.68;54.68;96082.25;5137905;27;20381;-62
2022/11/25 05:22:51;;;;;;;1.00;0.90;;;;;;;6.72;53.62;96090.81;5137598;27;20039;-62
2022/11/25 05:25:19;;;;;;;1.05;1.02;;;;;;;6.65;54.13;96079.75;5137617;27;20071;-62
2022/11/25 05:27:47;;;;;;;1.92;1.33;;;;;;;6.78;54.73;96098.44;5137586;27;20043;-62
2022/11/25 05:30:15;;;;;;;1.55;1.25;;;;;;;6.78;54.39;96101.91;5137630;27;20066;-62
2022/11/25 05:32:43;;;;;;;2.42;1.77;;;;;;;6.77;54.11;96100.16;5137524;27;20043;-62
2022/11/25 05:35:12;;;;;;;1.67;1.40;;;;;;;6.85;53.61;96104.28;5137366;27;20484;-62
2022/11/25 05:37:39;;;;;;;2.33;1.70;;;;;;;6.75;54.62;96089.00;5137320;27;20084;-62
2022/11/25 05:40:08;;;;;;;3.25;2.20;;;;;;;6.83;55.11;96100.00;5137458;27;20553;-62
2022/11/25 05:42:35;;;;;;;2.92;2.10;;;;;;;6.72;54.00;96104.69;5137376;27;20053;-63
2022/11/25 05:45:03;;;;;;;2.05;1.85;;;;;;;6.68;54.41;96110.84;5137165;27;20096;-61
2022/11/25 05:47:34;;;;;;;3.53;1.90;;;;;;;6.65;52.91;96108.34;5137195;27;20043;-62
2022/11/25 05:50:01;;;;;;;;;;;;;;;6.69;55.36;96110.78;5137701;27;20556;-62
2022/11/25 05:52:29;;;;;;;2.50;1.42;;;;;;;6.67;52.71;96112.59;5137325;27;19965;-61
2022/11/25 05:54:56;;;;;;;3.78;2.75;;;;;;;6.67;53.62;96122.13;5137126;27;20047;-63
2022/11/25 05:57:24;;;;;;;2.42;1.80;;;;;;;6.72;53.34;96122.88;5137005;27;20404;-63
2022/11/25 05:59:51;;;;;;;2.35;1.80;;;;;;;6.72;53.54;96130.66;5136944;27;20051;-61
2022/11/25 06:02:19;;;;;;;9.98;5.88;;;;;;;6.70;54.15;96140.25;5137008;27;20496;-63
2022/11/25 06:04:46;;;;;;;2.55;1.98;;;;;;;6.67;52.90;96143.78;5136912;27;20591;-63
2022/11/25 06:07:13;;;;;;;2.50;2.00;;;;;;;6.76;53.59;96141.81;5136891;27;20560;-61
2022/11/25 06:09:41;;;;;;;1.77;1.30;;;;;;;6.79;54.09;96147.78;5136785;27;20043;-62
2022/11/25 06:12:08;;;;;;;2.50;1.45;;;;;;;6.73;53.94;96167.91;5136640;27;20101;-63
2022/11/25 06:14:35;;;;;;;2.72;1.92;;;;;;;6.78;54.12;96158.22;5136659;27;20082;-63
2022/11/25 06:17:03;;;;;;;1.50;1.40;;;;;;;6.73;53.49;96167.91;5136390;27;20569;-63
2022/11/25 06:19:30;;;;;;;5.32;2.20;;;;;;;6.75;54.33;96173.91;5135633;27;20472;-63
2022/11/25 06:21:57;;;;;;;4.10;1.60;;;;;;;6.78;54.04;96184.22;5136646;27;20108;-62
2022/11/25 06:24:25;;;;;;;2.58;1.73;;;;;;;6.79;54.10;96183.31;5136559;27;20131;-62
2022/11/25 06:26:53;;;;;;;1.40;0.95;;;;;;;6.76;53.41;96186.88;5136486;27;20131;-61
2022/11/25 06:29:20;;;;;;;1.85;1.67;;;;;;;6.77;54.68;96191.16;5136469;27;20408;-62
2022/11/25 06:31:49;;;;;;;3.30;1.40;;;;;;;6.79;54.70;96201.53;5136491;27;20135;-61
2022/11/25 06:34:17;;;;;;;1.98;1.50;;;;;;;6.82;54.19;96204.91;5136277;27;20043;-62
2022/11/25 06:36:44;;;;;;;2.92;1.40;;;;;;;6.87;53.89;96206.50;5136368;27;20118;-62
2022/11/25 06:39:11;;;;;;;1.92;1.50;;;;;;;6.93;53.97;96203.75;5136303;27;20127;-63
2022/11/25 06:41:39;;;;;;;7.28;1.40;;;;;;;6.93;54.54;96211.53;5136154;27;20126;-60
2022/11/25 06:44:08;;;;;;;2.33;1.52;;;;;;;6.94;54.53;96215.84;5136090;27;20096;-61
2022/11/25 06:46:35;;;;;;;2.63;1.50;;;;;;;6.99;54.16;96213.97;5136148;27;20047;-62
2022/11/25 06:49:02;;;;;;;1.52;1.40;;;;;;;7.05;54.29;96216.38;5136102;27;20100;-63
2022/11/25 06:51:30;;;;;;;4.68;1.73;;;;;;;7.05;54.03;96225.94;5135983;27;20450;-62
2022/11/25 06:53:57;;;;;;;2.67;2.10;;;;;;;7.12;54.58;96232.66;5135940;27;20142;-61
2022/11/25 06:56:26;;;;;;;3.28;1.90;;;;;;;7.14;54.27;96232.63;5135822;27;20107;-61
2022/11/25 06:58:55;;;;;;;1.77;1.58;;;;;;;7.14;53.82;96233.47;5135851;27;20043;-62
2022/11/25 07:01:25;;;;;;;2.70;1.77;;;;;;;7.15;54.21;96222.16;5135754;27;20047;-62
2022/11/25 07:03:55;;;;;;;2.28;1.90;;;;;;;7.16;55.75;96228.22;5135684;27;20124;-62
2022/11/25 07:06:22;;;;;;;2.78;1.98;;;;;;;7.23;54.93;96232.34;5135574;27;20100;-62
2022/11/25 07:08:50;;;;;;;2.88;1.70;;;;;;;7.25;54.74;96234.91;5135677;27;20092;-62
2022/11/25 07:11:19;;;;;;;2.85;1.60;;;;;;;7.31;54.19;96235.56;5135543;27;20062;-63
2022/11/25 07:13:47;;;;;;;2.20;1.90;;;;;;;7.38;54.66;96240.59;5135585;27;20488;-63
2022/11/25 07:16:15;;;;;;;3.10;1.65;;;;;;;7.43;55.04;96234.34;5135250;27;20116;-62
2022/11/25 07:18:43;;;;;;;3.10;1.67;;;;;;;7.55;53.93;96240.94;5135360;27;20047;-62
2022/11/25 07:21:13;;;;;;;1.77;1.42;;;;;;;7.58;54.45;96239.97;5135366;27;20092;-62
2022/11/25 07:23:41;;;;;;;5.17;2.83;;;;;;;7.62;54.51;96236.41;5135330;27;20092;-62
2022/11/25 07:26:11;;;;;;;2.53;1.88;;;;;;;7.72;53.74;96239.56;5135604;27;20046;-62
2022/11/25 07:28:39;;;;;;;2.65;1.60;;;;;;;7.91;54.65;96246.78;5135495;27;20047;-62
2022/11/25 07:31:07;;;;;;;2.42;1.80;;;;;;;8.04;53.95;96244.66;5135124;27;20155;-62
2022/11/25 07:33:35;;;;;;;1.50;1.40;;;;;;;8.03;52.79;96249.00;5135266;27;20082;-62
2022/11/25 07:36:05;;;;;;;2.55;1.92;;;;;;;8.05;54.21;96244.59;5135069;27;20047;-62
2022/11/25 07:38:32;;;;;;;2.78;1.30;;;;;;;8.22;53.61;96254.44;5135097;27;20104;-63
2022/11/25 07:41:05;;;;;;;2.40;1.40;;;;;;;8.28;52.87;96270.78;5135092;27;20047;-62
2022/11/25 07:43:33;;;;;;;2.35;1.60;;;;;;;8.32;52.27;96270.66;5135014;27;20048;-63
2022/11/25 07:46:09;;;;;;;2.40;1.52;;;;;;;8.35;53.49;96269.69;5134907;27;20507;-63
2022/11/25 07:48:36;;;;;;;1.92;1.65;;;;;;;8.39;52.02;96278.25;5134957;27;20096;-62
2022/11/25 07:51:06;;;;;;;1.40;1.30;;;;;;;8.48;51.70;96277.94;5134833;27;20115;-62
2022/11/25 07:53:33;;;;;;;3.03;1.58;;;;;;;8.61;52.89;96277.56;5134698;27;20555;-63
2022/11/25 07:56:02;;;;;;;2.42;1.70;;;;;;;8.74;52.31;96289.28;5134567;27;20051;-62
2022/11/25 07:58:29;;;;;;;2.00;1.38;;;;;;;8.80;51.37;96275.16;5134762;27;20043;-63
2022/11/25 08:00:56;;;;;;;2.78;1.73;;;;;;;8.93;50.98;96288.63;5134675;27;20139;-62
2022/11/25 08:03:23;;;;;;;2.08;1.40;;;;;;;9.04;50.77;96291.72;5134665;27;20123;-62
2022/11/25 08:05:50;;;;;;;2.22;1.60;;;;;;;9.09;51.56;96299.34;5134542;27;20043;-62
2022/11/25 08:08:19;;;;;;;5.30;1.38;;;;;;;9.25;50.42;96301.41;5134518;27;20126;-62
2022/11/25 08:10:46;;;;;;;2.72;1.48;;;;;;;9.52;49.87;96294.31;5134267;27;20051;-63
2022/11/25 08:13:13;;;;;;;2.92;1.63;;;;;;;9.65;49.76;96299.94;5134508;27;20090;-63
2022/11/25 08:15:40;;;;;;;1.92;1.70;;;;;;;9.63;49.48;96306.97;5134467;27;20050;-63
2022/11/25 08:18:08;;;;;;;2.10;1.63;;;;;;;9.79;50.10;96304.63;5134204;27;20516;-63
2022/11/25 08:20:35;;;;;;;2.45;1.52;;;;;;;10.15;47.08;96302.38;5134331;27;20496;-61
2022/11/25 08:23:03;;;;;;;1.90;1.40;;;;;;;10.95;46.03;96305.22;5134159;27;20055;-61
2022/11/25 08:25:32;;;;;;;3.20;1.40;;;;;;;11.84;43.68;96301.28;5134247;27;20047;-63
2022/11/25 08:28:00;;;;;;;3.17;1.52;;;;;;;12.41;43.59;96305.63;5134205;27;20047;-63
2022/11/25 08:30:27;;;;;;;3.92;1.20;;;;;;;13.24;42.63;96314.59;5134272;27;20044;-62
2022/11/25 08:32:56;;;;;;;5.07;1.60;;;;;;;13.72;40.02;96319.13;5134183;27;20476;-62
2022/11/25 08:35:24;;;;;;;1.73;1.50;;;;;;;13.68;39.82;96320.22;5134118;27;20572;-63
2022/11/25 08:37:51;;;;;;;2.35;1.40;;;;;;;13.85;41.18;96333.28;5134158;27;20111;-63
2022/11/25 08:40:18;;;;;;;1.98;1.70;;;;;;;12.57;41.63;96321.44;5134221;27;20120;-62
2022/11/25 08:42:47;;;;;;;1.58;1.40;;;;;;;12.24;42.66;96333.50;5133690;27;20047;-62
2022/11/25 08:45:14;;;;;;;3.40;1.92;;;;;;;11.90;43.37;96319.34;5133977;27;20134;-62
2022/11/25 08:47:41;;;;;;;2.08;1.67;;;;;;;11.41;42.32;96318.03;5134084;27;20089;-62
2022/11/25 08:50:10;;;;;;;2.83;1.52;;;;;;;11.42;43.57;96324.16;5134049;27;20039;-62
2022/11/25 08:52:38;;;;;;;2.40;1.80;;;;;;;11.48;44.85;96318.63;5133946;27;20078;-62
2022/11/25 08:55:07;;;;;;;2.03;1.75;;;;;;;11.44;45.37;96327.56;5133916;27;20118;-62
2022/11/25 08:57:34;;;;;;;1.20;1.10;;;;;;;11.25;44.17;96336.22;5134026;27;20043;-62
2022/11/25 09:00:05;;;;;;;4.90;1.70;;;;;;;11.04;45.89;96320.53;5133999;27;20291;-62
2022/11/25 09:02:32;;;;;;;;;;;;;;;11.25;45.72;96315.28;5134417;27;20104;-62
2022/11/25 09:05:00;;;;;;;3.60;2.10;;;;;;;11.37;44.86;96312.13;5133888;27;19972;-62
2022/11/25 09:07:27;;;;;;;3.35;1.90;;;;;;;11.54;45.26;96320.97;5133761;27;20047;-62
2022/11/25 09:09:54;;;;;;;3.42;1.90;;;;;;;11.51;44.30;96321.13;5133939;27;20075;-62
2022/11/25 09:12:21;;;;;;;1.67;1.58;;;;;;;11.38;43.88;96312.97;5133876;27;20108;-62
2022/11/25 09:14:48;;;;;;;4.00;1.98;;;;;;;11.28;44.64;96330.84;5133877;27;20075;-62
2022/11/25 09:17:17;;;;;;;2.75;2.05;;;;;;;11.26;44.48;96311.75;5133454;27;20055;-62
2022/11/25 09:19:44;;;;;;;2.55;2.10;;;;;;;11.25;44.78;96316.13;5133731;27;20100;-62
2022/11/25 09:22:11;;;;;;;4.78;2.00;;;;;;;11.34;44.76;96320.09;5133667;27;20043;-62
2022/11/25 09:24:40;;;;;;;9.98;1.67;;;;;;;11.45;44.67;96324.88;5133717;27;20134;-62
2022/11/25 09:27:07;;;;;;;2.15;1.85;;;;;;;11.48;45.40;96310.78;5133789;27;20051;-62
2022/11/25 09:29:34;;;;;;;1.77;1.63;;;;;;;11.52;45.61;96322.81;5133828;27;20079;-61
2022/11/25 09:32:01;;;;;;;1.77;1.67;;;;;;;11.55;43.32;96309.56;5133646;27;20047;-62
2022/11/25 09:34:30;;;;;;;2.50;2.00;;;;;;;11.54;44.98;96307.88;5133550;27;20043;-62
2022/11/25 09:36:57;;;;;;;2.67;1.77;;;;;;;11.77;44.42;96310.38;5133664;27;20078;-61
2022/11/25 09:39:29;;;;;;;1.92;1.58;;;;;;;11.68;43.75;96309.03;5133595;27;20043;-61
2022/11/25 09:48:16;;;;;;;2.05;1.60;;;;;;;11.60;42.67;96325.09;5084886;27;20043;-62
2022/11/25 09:51:02;;;;;;;3.03;1.77;;;;;;;11.74;43.64;96329.72;5133464;27;20074;-62
2022/11/25 09:53:42;;;;;;;2.42;2.22;;;;;;;11.78;42.91;96331.25;5134156;27;20640;-62
2022/11/25 09:56:18;;;;;;;4.95;2.35;;;;;;;11.93;42.26;96334.94;5137180;27;20545;-62
2022/11/25 09:58:51;;;;;;;3.15;1.90;;;;;;;11.85;43.30;96334.44;5137068;27;20548;-62
2022/11/25 10:01:22;;;;;;;2.60;2.05;;;;;;;12.00;43.58;96330.25;5137154;27;20176;-61
2022/11/25 10:03:55;;;;;;;2.00;1.70;;;;;;;12.14;42.68;96324.38;5137119;27;20051;-62
2022/11/25 10:06:26;;;;;;;2.97;2.20;;;;;;;12.18;42.79;96323.31;5136960;27;20560;-62
2022/11/25 10:08:57;;;;;;;4.13;2.85;;;;;;;12.11;42.99;96330.63;5136932;27;20047;-62
2022/11/25 10:11:35;;;;;;;1.77;1.65;;;;;;;12.10;40.95;96331.53;5136845;27;20062;-62
2022/11/25 10:14:07;;;;;;;2.45;1.98;;;;;;;11.93;42.08;96326.22;5136697;27;20047;-62
2022/11/25 10:16:39;;;;;;;2.63;1.50;;;;;;;11.79;42.11;96330.31;5136315;27;20047;-61
2022/11/25 10:19:17;;;;;;;4.72;1.70;;;;;;;11.73;42.62;96328.84;5136627;27;20083;-62
2022/11/25 10:21:46;;;;;;;2.17;1.77;;;;;;;11.77;42.57;96329.53;5136542;27;20547;-62
2022/11/25 10:24:16;;;;;;;2.40;1.60;;;;;;;11.86;41.78;96323.03;5136678;27;20122;-62
2022/11/25 10:26:45;;;;;;;2.00;1.80;;;;;;;11.81;42.64;96330.25;5136550;27;20043;-62
2022/11/25 10:29:23;;;;;;;5.38;2.10;;;;;;;11.80;42.61;96316.28;5136569;27;20282;-62
2022/11/25 10:31:55;;;;;;;1.60;1.42;;;;;;;11.83;42.02;96321.41;5136438;27;20054;-62
2022/11/25 10:34:30;;;;;;;1.77;1.48;;;;;;;11.86;42.45;96323.88;5136524;27;20096;-62
2022/11/25 10:37:01;;;;;;;1.98;1.60;;;;;;;11.87;41.99;96320.31;5136334;27;20135;-62
2022/11/25 10:39:32;;;;;;;3.45;1.55;;;;;;;11.90;41.62;96323.72;5136508;27;20047;-62
2022/11/25 10:42:03;;;;;;;1.50;1.40;;;;;;;11.89;41.03;96317.63;5136397;27;20126;-62
2022/11/25 10:44:31;;;;;;;;;;;;;;;11.82;41.87;96318.84;5136545;27;20051;-62
2022/11/25 10:47:16;;;;;;;5.93;1.83;;;;;;;11.77;42.12;96320.84;5136142;27;19926;-62
2022/11/25 10:49:57;;;;;;;2.42;1.38;;;;;;;11.84;41.61;96323.13;5136023;27;20043;-61
2022/11/25 10:52:30;;;;;;;5.43;1.73;;;;;;;11.85;41.60;96316.09;5136063;27;20054;-61
2022/11/25 10:54:58;;;;;;;2.53;1.73;;;;;;;11.88;42.20;96319.44;5136055;27;20082;-61
2022/11/25 10:57:29;;;;;;;2.80;2.15;;;;;;;11.97;42.13;96312.03;5135973;27;20047;-62
2022/11/25 10:59:57;;;;;;;;;;;;;;;12.04;40.88;96312.63;5136308;27;20047;-62
2022/11/25 11:02:27;;;;;;;4.25;1.58;;;;;;;12.01;42.08;96317.06;5135882;27;19973;-62
2022/11/25 11:04:57;;;;;;;1.63;1.33;;;;;;;12.00;41.26;96318.00;5135351;27;20553;-62
2022/11/25 11:07:28;;;;;;;2.25;1.45;;;;;;;11.97;41.37;96318.13;5135710;27;20047;-62
2022/11/25 11:10:14;;;;;;;1.90;1.30;;;;;;;12.00;41.25;96318.00;5135739;27;20051;-62
2022/11/25 11:12:52;;;;;;;4.30;1.50;;;;;;;12.08;41.67;96319.44;5135727;27;20129;-62
2022/11/25 11:15:23;;;;;;;3.20;1.65;;;;;;;12.08;40.38;96316.81;5135527;27;20089;-62
2022/11/25 11:17:51;;;;;;;1.30;1.20;;;;;;;11.99;40.08;96310.19;5135143;27;20047;-62
2022/11/25 11:20:23;;;;;;;1.80;1.20;;;;;;;11.87;41.51;96311.63;5135455;27;20047;-61
2022/11/25 11:22:57;;;;;;;1.52;1.40;;;;;;;11.79;40.76;96317.22;5135421;27;20073;-62
2022/11/25 11:25:33;;;;;;;2.33;1.77;;;;;;;11.68;40.88;96327.38;5135447;27;20047;-62
2022/11/25 11:28:02;;;;;;;1.83;1.60;;;;;;;11.59;40.56;96326.84;5135059;27;20047;-62
2022/11/25 11:30:31;;;;;;;1.83;1.27;;;;;;;11.45;41.73;96334.50;5135428;27;20130;-62
2022/11/25 11:33:02;;;;;;;2.10;1.80;;;;;;;11.25;40.95;96333.59;5135295;27;20130;-62
2022/11/25 11:35:45;;;;;;;1.60;1.42;;;;;;;11.18;41.44;96338.28;5135164;27;20572;-62
2022/11/25 11:38:26;;;;;;;3.08;2.00;;;;;;;10.95;41.51;96340.09;5135188;27;20051;-62
2022/11/25 11:40:57;;;;;;;;;;;;;;;10.87;41.70;96326.50;5135454;27;20485;-62
2022/11/25 11:43:39;;;;;;;1.13;1.10;;;;;;;10.73;41.69;96337.53;5135114;27;19958;-61
2022/11/25 11:46:19;;;;;;;1.60;1.50;;;;;;;10.63;42.07;96334.47;5135001;27;20062;-62
2022/11/25 11:48:57;;;;;;;1.67;1.25;;;;;;;10.45;41.27;96346.50;5134992;27;20458;-62
2022/11/25 11:51:37;;;;;;;2.05;1.67;;;;;;;10.44;41.72;96345.66;5134908;27;20116;-61
2022/11/25 11:54:15;;;;;;;2.30;1.30;;;;;;;10.53;40.84;96339.22;5134842;27;20043;-62
2022/11/25 11:56:46;;;;;;;1.95;1.33;;;;;;;10.61;40.61;96337.16;5134713;27;20067;-62
2022/11/25 11:59:49;;;;;;;1.63;1.52;;;;;;;10.70;41.03;96333.31;5134669;27;20047;-61
2022/11/25 12:02:26;;;;;;;1.33;1.23;;;;;;;10.79;40.70;96333.81;5101848;27;20043;-61